»·PEaware :: N232KW KSNA-KCRQ

N232KW :: KSNA-KCRQ

FLIGHT INFORMATION

Flight Status: Arrived
Operator: Privately registered:
United States
More flights under this callsign
Pilot: Sally S. (18014)
Aircraft: CESSNA 172 SKYHAWK
(C172)
More flights by this aircraft type
Origin: KSNA John Wayne-Orange Co
United States
Destination: KCRQ McClellan-Palomar
United States
More flights between these airports :: More routes between these airports
Route: +V23 OCN
File this flight plan on PilotEdge
Remarks:
Altitude:
(Current/Filed)
5,000ft
Speed:
(Current/Filed)
1kts
Departed: 22-Feb-18 12:19 PM
Arrived: 22-Feb-18 01:20 PM
Distance/Time
Traveled:
44nm/1:00
Distance/Time
To Go:
Arrived

Flight Plot

Page will automatically refresh every two minutes.


Map Options




Map Legend


Flown Route
Filed Route
Departure Airport
Arrival Airport
Navaid (VOR, NDB)
Fix

Horizontal Profiles

Position Reports

Time Latitude Longitude Heading Altitude Ground
Speed
22-Feb-18 12:12 33.672567 -117.866301 298 60ft 0kts
22-Feb-18 12:13 33.672567 -117.866301 298 60ft 0kts
22-Feb-18 12:14 33.672567 -117.866301 298 60ft 0kts
22-Feb-18 12:15 33.672567 -117.866301 298 60ft 0kts
22-Feb-18 12:16 33.672567 -117.866301 298 60ft 0kts
22-Feb-18 12:17 33.672567 -117.866301 298 60ft 0kts
22-Feb-18 12:18 33.672568 -117.866301 298 60ft 0kts
22-Feb-18 12:19 33.672568 -117.866301 298 60ft 0kts
22-Feb-18 12:20 33.672568 -117.866301 298 60ft 0kts
22-Feb-18 12:21 33.672568 -117.866301 298 60ft 0kts
22-Feb-18 12:22 33.672568 -117.866301 298 60ft 0kts
22-Feb-18 12:23 33.673090 -117.866990 348 60ft 13kts
22-Feb-18 12:24 33.678579 -117.864237 29 60ft 22kts
22-Feb-18 12:25 33.679951 -117.863646 298 60ft 0kts
22-Feb-18 12:26 33.677347 -117.865846 209 78ft 68kts
22-Feb-18 12:27 33.657918 -117.874674 185 1092ft 79kts
22-Feb-18 12:28 33.636133 -117.877107 186 2104ft 79kts
22-Feb-18 12:29 33.618939 -117.859100 139 2970ft 86kts
22-Feb-18 12:32 33.672567 -117.866301 298 60ft 0kts
22-Feb-18 12:33 33.672567 -117.866301 298 60ft 0kts
22-Feb-18 12:34 33.672567 -117.866301 298 60ft 0kts
22-Feb-18 12:35 33.672568 -117.866301 298 60ft 0kts
22-Feb-18 12:36 33.672568 -117.866301 298 60ft 0kts
22-Feb-18 12:37 33.672568 -117.866301 298 60ft 0kts
22-Feb-18 12:38 33.672568 -117.866301 298 60ft 0kts
22-Feb-18 12:39 33.673183 -117.866977 357 60ft 9kts
22-Feb-18 12:40 33.678171 -117.864465 27 60ft 29kts
22-Feb-18 12:41 33.679968 -117.863670 295 60ft 0kts
22-Feb-18 12:42 33.680046 -117.863870 293 60ft 9kts
22-Feb-18 12:43 33.667669 -117.874562 210 770ft 68kts
22-Feb-18 12:44 33.649298 -117.877550 185 1934ft 68kts
22-Feb-18 12:45 33.630593 -117.879165 185 3024ft 68kts
22-Feb-18 12:46 33.611779 -117.879847 185 4040ft 68kts
22-Feb-18 12:47 33.591418 -117.879752 186 4887ft 79kts
22-Feb-18 12:48 33.565278 -117.879984 186 5017ft 98kts
22-Feb-18 12:49 33.540187 -117.872110 119 5016ft 116kts
22-Feb-18 12:50 33.532354 -117.833866 111 5017ft 118kts
22-Feb-18 12:51 33.524849 -117.795491 111 4996ft 118kts
22-Feb-18 12:52 33.517317 -117.757195 111 4969ft 118kts
22-Feb-18 12:53 33.505766 -117.722532 137 5015ft 106kts
22-Feb-18 12:54 33.487042 -117.693728 139 4917ft 108kts
22-Feb-18 12:55 33.465873 -117.669720 152 4846ft 102kts
22-Feb-18 12:56 33.443308 -117.648973 147 4791ft 102kts
22-Feb-18 12:57 33.421370 -117.626260 144 4750ft 108kts
22-Feb-18 12:58 33.399144 -117.601745 142 4721ft 109kts
22-Feb-18 12:59 33.377521 -117.577095 141 4741ft 105kts
22-Feb-18 13:00 33.356689 -117.552980 140 4772ft 103kts
22-Feb-18 13:01 33.336227 -117.529111 138 4803ft 102kts
22-Feb-18 13:02 33.315678 -117.505149 128 4834ft 107kts
22-Feb-18 13:03 33.293978 -117.479615 128 4867ft 112kts
22-Feb-18 13:04 33.271451 -117.453161 129 4901ft 114kts
22-Feb-18 13:05 33.248640 -117.426426 129 4936ft 115kts
22-Feb-18 13:06 33.240143 -117.394252 81 4976ft 104kts
22-Feb-18 13:07 33.241495 -117.359255 83 5020ft 108kts
22-Feb-18 13:08 33.244156 -117.319383 81 5026ft 125kts
22-Feb-18 13:09 33.247676 -117.277710 81 5026ft 127kts
22-Feb-18 13:10 33.252062 -117.235537 81 5026ft 128kts
22-Feb-18 13:11 33.257443 -117.193314 81 5026ft 128kts
22-Feb-18 13:12 33.263920 -117.151254 81 5008ft 128kts
22-Feb-18 13:13 33.271431 -117.109940 81 5007ft 126kts
22-Feb-18 13:14 33.279107 -117.069056 81 5006ft 126kts
22-Feb-18 13:15 33.277202 -117.032309 155 4901ft 102kts
22-Feb-18 13:16 33.251137 -117.023763 181 3826ft 97kts
22-Feb-18 13:17 33.225039 -117.022749 180 3504ft 94kts
22-Feb-18 13:18 33.198151 -117.021791 181 3504ft 98kts
22-Feb-18 13:19 33.174838 -117.033970 220 3504ft 96kts
22-Feb-18 13:20 33.163402 -117.062136 253 3505ft 98kts
22-Feb-18 13:21 33.158173 -117.094044 254 3457ft 103kts
22-Feb-18 13:22 33.152541 -117.129406 255 2889ft 110kts
22-Feb-18 13:23 33.147025 -117.163788 256 2277ft 104kts
22-Feb-18 13:24 33.141608 -117.197474 256 1695ft 98kts
22-Feb-18 13:25 33.136778 -117.227468 255 1170ft 83kts
22-Feb-18 13:26 33.132283 -117.255303 255 675ft 76kts
22-Feb-18 13:27 33.129100 -117.274942 252 335ft 28kts
22-Feb-18 13:28 33.128002 -117.278543 105 335ft 1kts

Navigation Log

Ident Type
1. KSNA Airport
2. OCN Navaid
3. KCRQ Airport